Warning: Javascript must be enabled to use all the features on this page!


Page Loading - Please Wait...

Click to hideNews Bulletins

Peak Streamflow for the Nation

USGS 03228750 Alum Creek near Kilbourne OH

Delaware County, Ohio
Hydrologic Unit Code 05060001
Latitude  40°21'24", Longitude  82°55'18" NAD27
Drainage area 64.9  square miles
Gage datum 900.15 feet above NAVD88
Output formats
Table
Graph
Tab-separated file
peakfq (watstore) format
Reselect output format
Water
Year
Date Gage
Height
(feet)
Stream-
flow
(cfs)
1974 1974-01-19 9.69 3,400
1975 1975-02-24 12.05 4,850
1976 1976-02-17 7.682 1,590
1977 1977-02-24 10.01 3,080
1978 1977-12-24 9.792 2,910
1979 1979-09-14 11.49 4,230
1980 1980-06-02 11.91 4,720
1981 1981-02-19 7.51 1,510
2001 2000-12-16 7.65 1,680
2002 2002-04-14 9.69 2,850
2003 2003-05-09 10.08 3,110
2004 2004-06-14 8.982 3,060
2005 2005-01-12 10.602 4,570
2006 2006-06-02 10.66 4,630
2007 2007-03-02   3,0002
2008 2008-02-06 8.19 2,380
2009 2009-05-01 8.71 2,790
2010 2009-10-31 6.72 1,380
2011 2011-02-28 11.62 5,790
2012 2011-12-06 7.68 2,000
2013 2013-07-09 9.71 3,680
2014 2013-12-22 10.71 4,690
2015 2015-06-17 13.13 8,100
2016 2015-12-27 8.59 2,690
2017 2017-01-12 8.34 2,490
2018 2017-11-18 13.29 8,370
2019 2019-07-03 12.70 7,390
2020 2020-05-19 10.39 4,480
2021 2021-05-09 10.06 4,180
?
  Peak Gage-Height Qualification Codes.
?
  Peak Streamflow Qualification Codes.